Hengelo, Netherlands
Current Conditions -  °F | °C
As of 2:20 PM on Friday 19 Dec 2014 (Local Time) from EDDG Reporting Station
Broken Clouds Broken Clouds  
Wind Chill: 43°   Ceiling: 11000
Heat Index: 48°   Visibility: 6mi
Dew Point: 45°   Wind: 12mph
Humidity: 87%   Direction: 260°W
Pressure: 29.8"   Gusts: NA
Location:  52.27°N, 6.79°E
Report Text: EDDG 191320Z 26010KT 9999 FEW020 SCT040 BKN110 09/07 Q1009 NOSIG
Loading
Personal Weather Stations






























Interactive Weather Map New forecast layout! Learn more

10-Day Weather Forecast

Advertisements
Track Severe Weather on mobile